7N8 weather

Butter Valley Golf Port Airport
Bally, Pennsylvania, United States

Public forecast

Using degrees Fahrenheit for public forecast. Weather courtesy of forecast.io.

Closest aviation weather report (METAR) to Butter Valley Golf Port Airport

Closest report is Quakertown Airport, 8.6 nm (16.0 km) ENE. Retrieved 2020/06/03 19:35 UTC (14 minutes ago):

KUKT 031935Z AUTO 23008G15KT 10SM CLR 26/20 A2967 RMK A01

Closest aviation forecast (TAF) to Butter Valley Golf Port Airport

Closest forecast is Lehigh Valley International Airport, 16.3 nm (30.1 km) NNE. Retrieved 2020/06/03 18:28 UTC (1 hour ago):

TAF KABE 031726Z 0318/0418 26012G23KT P6SM -SHRA BKN080 TEMPO 0321/0323 VRB20G30KT 3SM TSRA BKN040CB FM040000 28008KT P6SM BKN080 FM040500 VRB02KT P6SM SCT150 FM041500 28004KT P6SM -SHRA BKN100